sensor_id;sensor_type;location;lat;lon;timestamp;P1;durP1;ratioP1;P2;durP2;ratioP2
25663;SDS011;13522;50.018;20.014;2023-10-08T00:02:04;13.20;;;4.38;;
25663;SDS011;13522;50.018;20.014;2023-10-08T00:05:18;10.65;;;4.50;;
25663;SDS011;13522;50.018;20.014;2023-10-08T00:08:30;11.68;;;4.85;;
25663;SDS011;13522;50.018;20.014;2023-10-08T00:11:43;13.08;;;5.03;;
25663;SDS011;13522;50.018;20.014;2023-10-08T00:14:59;11.27;;;4.40;;
25663;SDS011;13522;50.018;20.014;2023-10-08T00:18:14;15.20;;;4.95;;
25663;SDS011;13522;50.018;20.014;2023-10-08T00:21:27;9.73;;;4.75;;
25663;SDS011;13522;50.018;20.014;2023-10-08T00:24:41;11.23;;;4.55;;
25663;SDS011;13522;50.018;20.014;2023-10-08T00:27:56;11.63;;;5.15;;
25663;SDS011;13522;50.018;20.014;2023-10-08T00:31:08;10.05;;;5.10;;
25663;SDS011;13522;50.018;20.014;2023-10-08T00:34:22;7.13;;;3.45;;
25663;SDS011;13522;50.018;20.014;2023-10-08T00:37:35;4.63;;;1.50;;
25663;SDS011;13522;50.018;20.014;2023-10-08T00:40:47;3.68;;;0.83;;
25663;SDS011;13522;50.018;20.014;2023-10-08T00:44:01;1.03;;;0.70;;
25663;SDS011;13522;50.018;20.014;2023-10-08T00:47:18;1.00;;;0.60;;
25663;SDS011;13522;50.018;20.014;2023-10-08T00:50:32;1.20;;;0.55;;
25663;SDS011;13522;50.018;20.014;2023-10-08T00:53:52;1.65;;;0.68;;
25663;SDS011;13522;50.018;20.014;2023-10-08T00:57:10;1.05;;;0.63;;
25663;SDS011;13522;50.018;20.014;2023-10-08T01:00:26;1.48;;;0.70;;
25663;SDS011;13522;50.018;20.014;2023-10-08T01:03:42;1.25;;;0.60;;
25663;SDS011;13522;50.018;20.014;2023-10-08T01:06:56;0.83;;;0.70;;
25663;SDS011;13522;50.018;20.014;2023-10-08T01:10:11;1.20;;;0.60;;
25663;SDS011;13522;50.018;20.014;2023-10-08T01:13:24;0.55;;;0.38;;
25663;SDS011;13522;50.018;20.014;2023-10-08T01:16:38;1.05;;;0.40;;
25663;SDS011;13522;50.018;20.014;2023-10-08T01:19:51;0.70;;;0.30;;
25663;SDS011;13522;50.018;20.014;2023-10-08T01:23:07;0.35;;;0.25;;
25663;SDS011;13522;50.018;20.014;2023-10-08T01:26:24;0.70;;;0.30;;
25663;SDS011;13522;50.018;20.014;2023-10-08T01:29:37;3.08;;;0.33;;
25663;SDS011;13522;50.018;20.014;2023-10-08T01:32:50;0.90;;;0.30;;
25663;SDS011;13522;50.018;20.014;2023-10-08T01:36:02;0.90;;;0.40;;
25663;SDS011;13522;50.018;20.014;2023-10-08T01:39:17;4.35;;;0.60;;
25663;SDS011;13522;50.018;20.014;2023-10-08T01:42:30;0.70;;;0.40;;
25663;SDS011;13522;50.018;20.014;2023-10-08T01:45:43;0.95;;;0.45;;
25663;SDS011;13522;50.018;20.014;2023-10-08T01:48:57;0.60;;;0.40;;
25663;SDS011;13522;50.018;20.014;2023-10-08T01:52:14;0.80;;;0.50;;
25663;SDS011;13522;50.018;20.014;2023-10-08T01:55:27;0.68;;;0.60;;
25663;SDS011;13522;50.018;20.014;2023-10-08T01:58:41;0.58;;;0.48;;
25663;SDS011;13522;50.018;20.014;2023-10-08T02:01:53;0.40;;;0.40;;
25663;SDS011;13522;50.018;20.014;2023-10-08T02:05:22;0.73;;;0.30;;
25663;SDS011;13522;50.018;20.014;2023-10-08T02:08:35;0.75;;;0.30;;
25663;SDS011;13522;50.018;20.014;2023-10-08T02:11:48;1.25;;;0.70;;
25663;SDS011;13522;50.018;20.014;2023-10-08T02:15:01;0.50;;;0.30;;
25663;SDS011;13522;50.018;20.014;2023-10-08T02:18:15;1.43;;;0.40;;
25663;SDS011;13522;50.018;20.014;2023-10-08T02:21:29;0.70;;;0.40;;
25663;SDS011;13522;50.018;20.014;2023-10-08T02:24:42;0.63;;;0.40;;
25663;SDS011;13522;50.018;20.014;2023-10-08T02:27:55;0.63;;;0.23;;
25663;SDS011;13522;50.018;20.014;2023-10-08T02:31:07;1.40;;;0.50;;
25663;SDS011;13522;50.018;20.014;2023-10-08T02:34:19;0.53;;;0.30;;
25663;SDS011;13522;50.018;20.014;2023-10-08T02:37:32;1.40;;;0.40;;
25663;SDS011;13522;50.018;20.014;2023-10-08T02:40:44;1.20;;;0.30;;
25663;SDS011;13522;50.018;20.014;2023-10-08T02:43:58;2.38;;;0.30;;
25663;SDS011;13522;50.018;20.014;2023-10-08T02:47:10;0.40;;;0.30;;
25663;SDS011;13522;50.018;20.014;2023-10-08T02:50:25;1.50;;;0.40;;
25663;SDS011;13522;50.018;20.014;2023-10-08T02:53:37;0.65;;;0.40;;
25663;SDS011;13522;50.018;20.014;2023-10-08T02:56:52;2.28;;;0.60;;
25663;SDS011;13522;50.018;20.014;2023-10-08T03:00:08;3.05;;;0.75;;
25663;SDS011;13522;50.018;20.014;2023-10-08T03:03:24;3.85;;;0.70;;
25663;SDS011;13522;50.018;20.014;2023-10-08T03:06:37;5.70;;;1.10;;
25663;SDS011;13522;50.018;20.014;2023-10-08T03:09:49;3.45;;;1.00;;
25663;SDS011;13522;50.018;20.014;2023-10-08T03:13:06;4.10;;;0.70;;
25663;SDS011;13522;50.018;20.014;2023-10-08T03:16:19;1.30;;;0.83;;
25663;SDS011;13522;50.018;20.014;2023-10-08T03:19:33;3.18;;;0.90;;
25663;SDS011;13522;50.018;20.014;2023-10-08T03:22:47;2.05;;;0.90;;
25663;SDS011;13522;50.018;20.014;2023-10-08T03:26:02;2.50;;;1.10;;
25663;SDS011;13522;50.018;20.014;2023-10-08T03:29:19;3.05;;;0.85;;
25663;SDS011;13522;50.018;20.014;2023-10-08T03:32:34;3.58;;;1.00;;
25663;SDS011;13522;50.018;20.014;2023-10-08T03:35:48;3.88;;;1.20;;
25663;SDS011;13522;50.018;20.014;2023-10-08T03:39:01;4.63;;;1.13;;
25663;SDS011;13522;50.018;20.014;2023-10-08T03:42:20;3.33;;;1.40;;
25663;SDS011;13522;50.018;20.014;2023-10-08T03:45:34;2.25;;;1.10;;
25663;SDS011;13522;50.018;20.014;2023-10-08T03:49:03;3.40;;;1.00;;
25663;SDS011;13522;50.018;20.014;2023-10-08T03:52:18;4.20;;;1.30;;
25663;SDS011;13522;50.018;20.014;2023-10-08T03:55:30;3.08;;;1.20;;
25663;SDS011;13522;50.018;20.014;2023-10-08T03:58:44;5.00;;;1.55;;
25663;SDS011;13522;50.018;20.014;2023-10-08T04:01:59;3.75;;;1.40;;
25663;SDS011;13522;50.018;20.014;2023-10-08T04:05:19;3.35;;;1.20;;
25663;SDS011;13522;50.018;20.014;2023-10-08T04:08:34;3.58;;;1.30;;
25663;SDS011;13522;50.018;20.014;2023-10-08T04:11:53;5.70;;;1.33;;
25663;SDS011;13522;50.018;20.014;2023-10-08T04:15:09;4.38;;;1.28;;
25663;SDS011;13522;50.018;20.014;2023-10-08T04:18:22;4.50;;;1.38;;
25663;SDS011;13522;50.018;20.014;2023-10-08T04:21:34;4.03;;;1.20;;
25663;SDS011;13522;50.018;20.014;2023-10-08T04:24:47;1.88;;;1.18;;
25663;SDS011;13522;50.018;20.014;2023-10-08T04:27:59;2.45;;;1.08;;
25663;SDS011;13522;50.018;20.014;2023-10-08T04:31:13;1.53;;;0.88;;
25663;SDS011;13522;50.018;20.014;2023-10-08T04:34:27;2.35;;;1.10;;
25663;SDS011;13522;50.018;20.014;2023-10-08T04:37:39;2.45;;;1.30;;
25663;SDS011;13522;50.018;20.014;2023-10-08T04:40:54;4.00;;;1.18;;
25663;SDS011;13522;50.018;20.014;2023-10-08T04:44:10;3.50;;;1.20;;
25663;SDS011;13522;50.018;20.014;2023-10-08T04:47:22;5.70;;;1.18;;
25663;SDS011;13522;50.018;20.014;2023-10-08T04:50:42;5.50;;;1.60;;
25663;SDS011;13522;50.018;20.014;2023-10-08T04:53:57;3.50;;;1.23;;
25663;SDS011;13522;50.018;20.014;2023-10-08T04:57:09;3.23;;;1.40;;
25663;SDS011;13522;50.018;20.014;2023-10-08T05:00:25;7.78;;;1.58;;
25663;SDS011;13522;50.018;20.014;2023-10-08T05:03:49;5.00;;;1.55;;
25663;SDS011;13522;50.018;20.014;2023-10-08T05:07:06;5.43;;;1.40;;
25663;SDS011;13522;50.018;20.014;2023-10-08T05:10:31;6.43;;;1.50;;
25663;SDS011;13522;50.018;20.014;2023-10-08T05:13:56;6.70;;;1.88;;
25663;SDS011;13522;50.018;20.014;2023-10-08T05:20:32;7.28;;;1.60;;
25663;SDS011;13522;50.018;20.014;2023-10-08T05:24:01;8.35;;;2.10;;
25663;SDS011;13522;50.018;20.014;2023-10-08T05:27:18;5.55;;;1.75;;
25663;SDS011;13522;50.018;20.014;2023-10-08T05:30:41;9.78;;;1.88;;
25663;SDS011;13522;50.018;20.014;2023-10-08T05:34:03;8.15;;;1.70;;
25663;SDS011;13522;50.018;20.014;2023-10-08T05:37:25;4.15;;;1.63;;
25663;SDS011;13522;50.018;20.014;2023-10-08T05:44:14;8.28;;;1.75;;
25663;SDS011;13522;50.018;20.014;2023-10-08T05:47:35;8.58;;;1.90;;
25663;SDS011;13522;50.018;20.014;2023-10-08T05:50:49;6.33;;;2.05;;
25663;SDS011;13522;50.018;20.014;2023-10-08T05:54:06;11.68;;;3.75;;
25663;SDS011;13522;50.018;20.014;2023-10-08T05:57:21;6.53;;;2.33;;
25663;SDS011;13522;50.018;20.014;2023-10-08T06:00:45;5.70;;;2.80;;
25663;SDS011;13522;50.018;20.014;2023-10-08T06:04:13;6.13;;;1.98;;
25663;SDS011;13522;50.018;20.014;2023-10-08T06:07:53;8.55;;;2.18;;
25663;SDS011;13522;50.018;20.014;2023-10-08T06:11:07;5.78;;;1.95;;
25663;SDS011;13522;50.018;20.014;2023-10-08T06:14:21;24.53;;;10.73;;
25663;SDS011;13522;50.018;20.014;2023-10-08T06:21:06;8.33;;;1.90;;
25663;SDS011;13522;50.018;20.014;2023-10-08T06:24:19;6.40;;;1.95;;
25663;SDS011;13522;50.018;20.014;2023-10-08T06:27:31;8.23;;;2.13;;
25663;SDS011;13522;50.018;20.014;2023-10-08T06:30:44;6.85;;;1.83;;
25663;SDS011;13522;50.018;20.014;2023-10-08T06:33:58;6.83;;;2.18;;
25663;SDS011;13522;50.018;20.014;2023-10-08T06:37:13;6.08;;;2.08;;
25663;SDS011;13522;50.018;20.014;2023-10-08T06:40:25;8.40;;;1.93;;
25663;SDS011;13522;50.018;20.014;2023-10-08T06:43:50;5.73;;;1.90;;
25663;SDS011;13522;50.018;20.014;2023-10-08T06:47:04;4.53;;;1.78;;
25663;SDS011;13522;50.018;20.014;2023-10-08T06:50:19;4.60;;;1.73;;
25663;SDS011;13522;50.018;20.014;2023-10-08T06:53:34;18.43;;;9.85;;
25663;SDS011;13522;50.018;20.014;2023-10-08T06:56:49;6.10;;;2.83;;
25663;SDS011;13522;50.018;20.014;2023-10-08T07:00:01;6.40;;;2.00;;
25663;SDS011;13522;50.018;20.014;2023-10-08T07:03:18;6.60;;;2.95;;
25663;SDS011;13522;50.018;20.014;2023-10-08T07:06:31;5.23;;;1.70;;
25663;SDS011;13522;50.018;20.014;2023-10-08T07:09:44;5.85;;;1.90;;
25663;SDS011;13522;50.018;20.014;2023-10-08T07:12:59;4.53;;;1.60;;
25663;SDS011;13522;50.018;20.014;2023-10-08T07:16:12;6.58;;;1.90;;
25663;SDS011;13522;50.018;20.014;2023-10-08T07:19:26;6.38;;;2.10;;
25663;SDS011;13522;50.018;20.014;2023-10-08T07:25:56;4.80;;;1.93;;
25663;SDS011;13522;50.018;20.014;2023-10-08T07:29:12;8.00;;;2.53;;
25663;SDS011;13522;50.018;20.014;2023-10-08T07:32:26;6.53;;;2.20;;
25663;SDS011;13522;50.018;20.014;2023-10-08T07:35:39;7.03;;;2.38;;
25663;SDS011;13522;50.018;20.014;2023-10-08T07:38:53;7.43;;;2.70;;
25663;SDS011;13522;50.018;20.014;2023-10-08T07:42:08;6.85;;;2.68;;
25663;SDS011;13522;50.018;20.014;2023-10-08T07:45:20;7.18;;;3.13;;
25663;SDS011;13522;50.018;20.014;2023-10-08T07:48:32;6.70;;;2.90;;
25663;SDS011;13522;50.018;20.014;2023-10-08T07:51:47;13.18;;;2.85;;
25663;SDS011;13522;50.018;20.014;2023-10-08T07:54:59;9.85;;;3.50;;
25663;SDS011;13522;50.018;20.014;2023-10-08T07:58:13;9.30;;;3.63;;
25663;SDS011;13522;50.018;20.014;2023-10-08T08:01:26;7.60;;;3.20;;
25663;SDS011;13522;50.018;20.014;2023-10-08T08:04:38;8.13;;;3.48;;
25663;SDS011;13522;50.018;20.014;2023-10-08T08:07:54;9.70;;;3.85;;
25663;SDS011;13522;50.018;20.014;2023-10-08T08:11:09;8.90;;;3.40;;
25663;SDS011;13522;50.018;20.014;2023-10-08T08:14:24;7.03;;;3.20;;
25663;SDS011;13522;50.018;20.014;2023-10-08T08:17:36;9.78;;;3.13;;
25663;SDS011;13522;50.018;20.014;2023-10-08T08:20:48;6.28;;;2.78;;
25663;SDS011;13522;50.018;20.014;2023-10-08T08:24:04;9.10;;;3.05;;
25663;SDS011;13522;50.018;20.014;2023-10-08T08:27:17;9.18;;;3.60;;
25663;SDS011;13522;50.018;20.014;2023-10-08T08:33:44;9.83;;;2.60;;
25663;SDS011;13522;50.018;20.014;2023-10-08T08:37:04;6.55;;;2.75;;
25663;SDS011;13522;50.018;20.014;2023-10-08T08:40:17;6.73;;;2.68;;
25663;SDS011;13522;50.018;20.014;2023-10-08T08:43:31;5.43;;;2.48;;
25663;SDS011;13522;50.018;20.014;2023-10-08T08:46:47;6.25;;;3.10;;
25663;SDS011;13522;50.018;20.014;2023-10-08T08:49:59;5.75;;;2.90;;
25663;SDS011;13522;50.018;20.014;2023-10-08T08:53:15;6.33;;;3.18;;
25663;SDS011;13522;50.018;20.014;2023-10-08T08:56:37;4.88;;;2.70;;
25663;SDS011;13522;50.018;20.014;2023-10-08T08:59:52;5.63;;;1.90;;
25663;SDS011;13522;50.018;20.014;2023-10-08T09:03:11;7.03;;;3.18;;
25663;SDS011;13522;50.018;20.014;2023-10-08T09:06:24;5.60;;;3.75;;
25663;SDS011;13522;50.018;20.014;2023-10-08T09:09:36;12.25;;;8.10;;
25663;SDS011;13522;50.018;20.014;2023-10-08T09:12:49;5.05;;;2.00;;
25663;SDS011;13522;50.018;20.014;2023-10-08T09:16:09;5.15;;;2.88;;
25663;SDS011;13522;50.018;20.014;2023-10-08T09:19:25;4.53;;;2.05;;
25663;SDS011;13522;50.018;20.014;2023-10-08T09:22:37;4.13;;;1.40;;
25663;SDS011;13522;50.018;20.014;2023-10-08T09:25:51;4.38;;;2.55;;
25663;SDS011;13522;50.018;20.014;2023-10-08T09:29:07;4.40;;;2.08;;
25663;SDS011;13522;50.018;20.014;2023-10-08T09:32:21;4.13;;;1.98;;
25663;SDS011;13522;50.018;20.014;2023-10-08T09:35:33;4.80;;;2.08;;
25663;SDS011;13522;50.018;20.014;2023-10-08T09:38:48;3.20;;;1.63;;
25663;SDS011;13522;50.018;20.014;2023-10-08T09:42:01;4.50;;;1.68;;
25663;SDS011;13522;50.018;20.014;2023-10-08T09:45:16;2.83;;;1.53;;
25663;SDS011;13522;50.018;20.014;2023-10-08T09:48:29;4.13;;;1.80;;
25663;SDS011;13522;50.018;20.014;2023-10-08T09:51:48;13.00;;;7.73;;
25663;SDS011;13522;50.018;20.014;2023-10-08T09:55:01;3.55;;;1.60;;
25663;SDS011;13522;50.018;20.014;2023-10-08T09:58:18;4.55;;;1.85;;
25663;SDS011;13522;50.018;20.014;2023-10-08T10:01:31;2.65;;;1.40;;
25663;SDS011;13522;50.018;20.014;2023-10-08T10:04:45;5.63;;;1.70;;
25663;SDS011;13522;50.018;20.014;2023-10-08T10:07:59;2.43;;;1.40;;
25663;SDS011;13522;50.018;20.014;2023-10-08T10:11:14;2.80;;;1.30;;
25663;SDS011;13522;50.018;20.014;2023-10-08T10:14:29;3.58;;;1.55;;
25663;SDS011;13522;50.018;20.014;2023-10-08T10:17:54;1.98;;;1.38;;
25663;SDS011;13522;50.018;20.014;2023-10-08T10:21:28;3.70;;;1.70;;
25663;SDS011;13522;50.018;20.014;2023-10-08T10:24:42;2.75;;;1.53;;
25663;SDS011;13522;50.018;20.014;2023-10-08T10:31:34;5.20;;;1.90;;
25663;SDS011;13522;50.018;20.014;2023-10-08T10:34:48;4.55;;;1.25;;
25663;SDS011;13522;50.018;20.014;2023-10-08T10:38:00;3.90;;;1.25;;
25663;SDS011;13522;50.018;20.014;2023-10-08T10:41:16;4.08;;;1.80;;
25663;SDS011;13522;50.018;20.014;2023-10-08T10:44:29;5.28;;;1.55;;
25663;SDS011;13522;50.018;20.014;2023-10-08T10:47:46;3.45;;;1.60;;
25663;SDS011;13522;50.018;20.014;2023-10-08T10:51:06;5.33;;;2.15;;
25663;SDS011;13522;50.018;20.014;2023-10-08T10:54:21;2.63;;;1.30;;
25663;SDS011;13522;50.018;20.014;2023-10-08T10:57:36;5.08;;;1.50;;
25663;SDS011;13522;50.018;20.014;2023-10-08T11:00:52;2.38;;;1.40;;
25663;SDS011;13522;50.018;20.014;2023-10-08T11:04:09;3.18;;;1.40;;
25663;SDS011;13522;50.018;20.014;2023-10-08T11:10:38;4.40;;;1.40;;
25663;SDS011;13522;50.018;20.014;2023-10-08T11:13:57;3.23;;;1.50;;
25663;SDS011;13522;50.018;20.014;2023-10-08T11:17:13;13.10;;;6.90;;
25663;SDS011;13522;50.018;20.014;2023-10-08T11:20:28;3.65;;;1.60;;
25663;SDS011;13522;50.018;20.014;2023-10-08T11:23:43;2.58;;;1.53;;
25663;SDS011;13522;50.018;20.014;2023-10-08T11:27:04;4.18;;;1.00;;
25663;SDS011;13522;50.018;20.014;2023-10-08T11:30:26;3.65;;;1.13;;
25663;SDS011;13522;50.018;20.014;2023-10-08T11:33:39;2.20;;;1.00;;
25663;SDS011;13522;50.018;20.014;2023-10-08T11:36:55;4.73;;;1.27;;
25663;SDS011;13522;50.018;20.014;2023-10-08T11:40:11;3.68;;;1.38;;
25663;SDS011;13522;50.018;20.014;2023-10-08T11:43:38;3.23;;;1.20;;
25663;SDS011;13522;50.018;20.014;2023-10-08T11:46:50;2.70;;;1.05;;
25663;SDS011;13522;50.018;20.014;2023-10-08T11:50:05;2.10;;;1.00;;
25663;SDS011;13522;50.018;20.014;2023-10-08T11:53:20;2.35;;;1.00;;
25663;SDS011;13522;50.018;20.014;2023-10-08T11:56:33;2.18;;;0.90;;
25663;SDS011;13522;50.018;20.014;2023-10-08T11:59:45;4.83;;;1.25;;
25663;SDS011;13522;50.018;20.014;2023-10-08T12:02:59;2.30;;;1.10;;
25663;SDS011;13522;50.018;20.014;2023-10-08T12:06:14;1.75;;;1.10;;
25663;SDS011;13522;50.018;20.014;2023-10-08T12:09:28;2.08;;;1.08;;
25663;SDS011;13522;50.018;20.014;2023-10-08T12:12:42;1.90;;;1.00;;
25663;SDS011;13522;50.018;20.014;2023-10-08T12:15:56;3.63;;;0.95;;
25663;SDS011;13522;50.018;20.014;2023-10-08T12:19:16;4.33;;;1.33;;
25663;SDS011;13522;50.018;20.014;2023-10-08T12:22:30;2.13;;;1.18;;
25663;SDS011;13522;50.018;20.014;2023-10-08T12:25:42;2.70;;;1.00;;
25663;SDS011;13522;50.018;20.014;2023-10-08T12:28:57;2.53;;;1.30;;
25663;SDS011;13522;50.018;20.014;2023-10-08T12:32:10;4.43;;;1.40;;
25663;SDS011;13522;50.018;20.014;2023-10-08T12:35:23;1.95;;;1.00;;
25663;SDS011;13522;50.018;20.014;2023-10-08T12:38:38;4.68;;;1.20;;
25663;SDS011;13522;50.018;20.014;2023-10-08T12:41:52;2.30;;;1.40;;
25663;SDS011;13522;50.018;20.014;2023-10-08T12:45:07;3.58;;;1.50;;
25663;SDS011;13522;50.018;20.014;2023-10-08T12:48:23;1.93;;;1.20;;
25663;SDS011;13522;50.018;20.014;2023-10-08T12:51:36;3.03;;;1.80;;
25663;SDS011;13522;50.018;20.014;2023-10-08T12:54:49;3.08;;;1.23;;
25663;SDS011;13522;50.018;20.014;2023-10-08T12:58:13;6.28;;;2.63;;
25663;SDS011;13522;50.018;20.014;2023-10-08T13:01:27;2.85;;;1.50;;
25663;SDS011;13522;50.018;20.014;2023-10-08T13:04:40;3.68;;;1.60;;
25663;SDS011;13522;50.018;20.014;2023-10-08T13:07:53;2.28;;;1.30;;
25663;SDS011;13522;50.018;20.014;2023-10-08T13:11:08;3.78;;;1.90;;
25663;SDS011;13522;50.018;20.014;2023-10-08T13:14:22;3.88;;;1.68;;
25663;SDS011;13522;50.018;20.014;2023-10-08T13:17:34;3.00;;;1.90;;
25663;SDS011;13522;50.018;20.014;2023-10-08T13:20:47;3.28;;;1.63;;
25663;SDS011;13522;50.018;20.014;2023-10-08T13:23:59;2.10;;;1.23;;
25663;SDS011;13522;50.018;20.014;2023-10-08T13:27:14;2.15;;;1.25;;
25663;SDS011;13522;50.018;20.014;2023-10-08T13:30:28;4.18;;;1.20;;
25663;SDS011;13522;50.018;20.014;2023-10-08T13:33:40;2.30;;;1.38;;
25663;SDS011;13522;50.018;20.014;2023-10-08T13:36:56;2.48;;;1.35;;
25663;SDS011;13522;50.018;20.014;2023-10-08T13:40:09;4.45;;;1.53;;
25663;SDS011;13522;50.018;20.014;2023-10-08T13:43:21;5.35;;;1.68;;
25663;SDS011;13522;50.018;20.014;2023-10-08T13:46:35;3.70;;;1.58;;
25663;SDS011;13522;50.018;20.014;2023-10-08T13:49:50;3.38;;;1.45;;
25663;SDS011;13522;50.018;20.014;2023-10-08T13:53:03;2.35;;;1.38;;
25663;SDS011;13522;50.018;20.014;2023-10-08T13:56:17;4.43;;;1.80;;
25663;SDS011;13522;50.018;20.014;2023-10-08T13:59:35;3.68;;;1.43;;
25663;SDS011;13522;50.018;20.014;2023-10-08T14:02:47;3.45;;;1.65;;
25663;SDS011;13522;50.018;20.014;2023-10-08T14:06:01;5.93;;;1.53;;
25663;SDS011;13522;50.018;20.014;2023-10-08T14:09:14;4.73;;;1.83;;
25663;SDS011;13522;50.018;20.014;2023-10-08T14:12:31;4.45;;;1.95;;
25663;SDS011;13522;50.018;20.014;2023-10-08T14:15:44;3.10;;;1.53;;
25663;SDS011;13522;50.018;20.014;2023-10-08T14:18:59;2.60;;;1.30;;
25663;SDS011;13522;50.018;20.014;2023-10-08T14:22:11;4.78;;;1.63;;
25663;SDS011;13522;50.018;20.014;2023-10-08T14:25:24;6.10;;;2.68;;
25663;SDS011;13522;50.018;20.014;2023-10-08T14:28:38;3.50;;;1.80;;
25663;SDS011;13522;50.018;20.014;2023-10-08T14:31:53;8.35;;;2.78;;
25663;SDS011;13522;50.018;20.014;2023-10-08T14:35:06;5.03;;;1.70;;
25663;SDS011;13522;50.018;20.014;2023-10-08T14:38:33;2.23;;;1.25;;
25663;SDS011;13522;50.018;20.014;2023-10-08T14:42:00;5.68;;;1.78;;
25663;SDS011;13522;50.018;20.014;2023-10-08T14:45:27;3.00;;;1.10;;
25663;SDS011;13522;50.018;20.014;2023-10-08T14:48:45;2.63;;;1.60;;
25663;SDS011;13522;50.018;20.014;2023-10-08T14:51:59;2.73;;;1.50;;
25663;SDS011;13522;50.018;20.014;2023-10-08T14:55:13;3.40;;;1.55;;
25663;SDS011;13522;50.018;20.014;2023-10-08T14:58:26;3.23;;;1.60;;
25663;SDS011;13522;50.018;20.014;2023-10-08T15:01:38;5.60;;;2.40;;
25663;SDS011;13522;50.018;20.014;2023-10-08T15:04:51;8.70;;;4.00;;
25663;SDS011;13522;50.018;20.014;2023-10-08T15:08:05;4.83;;;2.50;;
25663;SDS011;13522;50.018;20.014;2023-10-08T15:11:19;3.70;;;1.90;;
25663;SDS011;13522;50.018;20.014;2023-10-08T15:14:33;3.48;;;1.80;;
25663;SDS011;13522;50.018;20.014;2023-10-08T15:17:47;5.83;;;2.50;;
25663;SDS011;13522;50.018;20.014;2023-10-08T15:21:00;2.90;;;1.68;;
25663;SDS011;13522;50.018;20.014;2023-10-08T15:24:13;3.33;;;1.60;;
25663;SDS011;13522;50.018;20.014;2023-10-08T15:27:25;6.15;;;2.08;;
25663;SDS011;13522;50.018;20.014;2023-10-08T15:30:38;10.30;;;2.75;;
25663;SDS011;13522;50.018;20.014;2023-10-08T15:34:04;4.88;;;2.45;;
25663;SDS011;13522;50.018;20.014;2023-10-08T15:37:18;3.43;;;1.73;;
25663;SDS011;13522;50.018;20.014;2023-10-08T15:40:31;4.65;;;1.95;;
25663;SDS011;13522;50.018;20.014;2023-10-08T15:43:43;2.73;;;1.48;;
25663;SDS011;13522;50.018;20.014;2023-10-08T15:47:02;3.65;;;1.55;;
25663;SDS011;13522;50.018;20.014;2023-10-08T15:50:14;7.98;;;3.80;;
25663;SDS011;13522;50.018;20.014;2023-10-08T15:53:30;9.13;;;4.60;;
25663;SDS011;13522;50.018;20.014;2023-10-08T15:56:43;4.93;;;2.13;;
25663;SDS011;13522;50.018;20.014;2023-10-08T15:59:55;5.05;;;2.58;;
25663;SDS011;13522;50.018;20.014;2023-10-08T16:06:08;4.30;;;1.90;;
25663;SDS011;13522;50.018;20.014;2023-10-08T16:12:22;5.33;;;1.63;;
25663;SDS011;13522;50.018;20.014;2023-10-08T16:15:34;4.88;;;1.53;;
25663;SDS011;13522;50.018;20.014;2023-10-08T16:18:47;2.98;;;1.60;;
25663;SDS011;13522;50.018;20.014;2023-10-08T16:21:59;2.93;;;1.68;;
25663;SDS011;13522;50.018;20.014;2023-10-08T16:25:11;4.13;;;1.80;;
25663;SDS011;13522;50.018;20.014;2023-10-08T16:28:25;5.60;;;2.38;;
25663;SDS011;13522;50.018;20.014;2023-10-08T16:31:39;4.88;;;2.25;;
25663;SDS011;13522;50.018;20.014;2023-10-08T16:37:52;6.93;;;2.83;;
25663;SDS011;13522;50.018;20.014;2023-10-08T16:41:05;4.93;;;2.28;;
25663;SDS011;13522;50.018;20.014;2023-10-08T16:44:17;5.60;;;2.18;;
25663;SDS011;13522;50.018;20.014;2023-10-08T16:47:30;4.60;;;1.83;;
25663;SDS011;13522;50.018;20.014;2023-10-08T16:59:43;5.63;;;1.95;;
25663;SDS011;13522;50.018;20.014;2023-10-08T17:11:57;4.53;;;1.58;;
25663;SDS011;13522;50.018;20.014;2023-10-08T17:15:10;2.48;;;1.55;;
25663;SDS011;13522;50.018;20.014;2023-10-08T17:18:22;4.53;;;1.60;;
25663;SDS011;13522;50.018;20.014;2023-10-08T17:21:35;3.90;;;1.50;;
25663;SDS011;13522;50.018;20.014;2023-10-08T17:24:48;5.63;;;1.68;;
25663;SDS011;13522;50.018;20.014;2023-10-08T17:28:00;3.68;;;1.60;;
25663;SDS011;13522;50.018;20.014;2023-10-08T17:31:16;4.43;;;2.00;;
25663;SDS011;13522;50.018;20.014;2023-10-08T17:37:44;5.03;;;2.10;;
25663;SDS011;13522;50.018;20.014;2023-10-08T17:40:58;4.18;;;1.70;;
25663;SDS011;13522;50.018;20.014;2023-10-08T17:44:13;6.38;;;2.03;;
25663;SDS011;13522;50.018;20.014;2023-10-08T17:47:27;4.65;;;2.00;;
25663;SDS011;13522;50.018;20.014;2023-10-08T17:50:45;5.00;;;2.40;;
25663;SDS011;13522;50.018;20.014;2023-10-08T17:56:57;4.25;;;2.35;;
25663;SDS011;13522;50.018;20.014;2023-10-08T18:00:12;6.30;;;2.88;;
25663;SDS011;13522;50.018;20.014;2023-10-08T18:03:27;5.03;;;2.48;;
25663;SDS011;13522;50.018;20.014;2023-10-08T18:06:42;5.13;;;2.30;;
25663;SDS011;13522;50.018;20.014;2023-10-08T18:09:57;5.83;;;2.93;;
25663;SDS011;13522;50.018;20.014;2023-10-08T18:13:10;5.10;;;2.78;;
25663;SDS011;13522;50.018;20.014;2023-10-08T18:16:23;9.13;;;2.95;;
25663;SDS011;13522;50.018;20.014;2023-10-08T18:19:38;5.20;;;2.50;;
25663;SDS011;13522;50.018;20.014;2023-10-08T18:22:50;5.15;;;2.65;;
25663;SDS011;13522;50.018;20.014;2023-10-08T18:26:04;5.18;;;2.85;;
25663;SDS011;13522;50.018;20.014;2023-10-08T18:29:21;6.75;;;3.30;;
25663;SDS011;13522;50.018;20.014;2023-10-08T18:32:33;8.20;;;3.50;;
25663;SDS011;13522;50.018;20.014;2023-10-08T18:35:47;7.18;;;3.43;;
25663;SDS011;13522;50.018;20.014;2023-10-08T18:39:00;6.35;;;3.38;;
25663;SDS011;13522;50.018;20.014;2023-10-08T18:42:16;6.80;;;3.53;;
25663;SDS011;13522;50.018;20.014;2023-10-08T18:45:31;7.05;;;3.38;;
25663;SDS011;13522;50.018;20.014;2023-10-08T18:48:43;5.85;;;2.93;;
25663;SDS011;13522;50.018;20.014;2023-10-08T18:51:56;7.20;;;3.40;;
25663;SDS011;13522;50.018;20.014;2023-10-08T18:55:10;6.73;;;3.50;;
25663;SDS011;13522;50.018;20.014;2023-10-08T18:58:24;7.38;;;3.78;;
25663;SDS011;13522;50.018;20.014;2023-10-08T19:01:36;9.05;;;3.43;;
25663;SDS011;13522;50.018;20.014;2023-10-08T19:04:52;7.13;;;3.90;;
25663;SDS011;13522;50.018;20.014;2023-10-08T19:08:04;8.10;;;4.10;;
25663;SDS011;13522;50.018;20.014;2023-10-08T19:11:17;10.25;;;4.28;;
25663;SDS011;13522;50.018;20.014;2023-10-08T19:14:30;8.45;;;4.50;;
25663;SDS011;13522;50.018;20.014;2023-10-08T19:17:44;7.93;;;4.25;;
25663;SDS011;13522;50.018;20.014;2023-10-08T19:20:58;9.55;;;4.63;;
25663;SDS011;13522;50.018;20.014;2023-10-08T19:24:11;9.28;;;4.80;;
25663;SDS011;13522;50.018;20.014;2023-10-08T19:27:23;11.48;;;5.48;;
25663;SDS011;13522;50.018;20.014;2023-10-08T19:30:35;9.78;;;4.98;;
25663;SDS011;13522;50.018;20.014;2023-10-08T19:33:48;14.03;;;5.80;;
25663;SDS011;13522;50.018;20.014;2023-10-08T19:37:01;11.78;;;6.28;;
25663;SDS011;13522;50.018;20.014;2023-10-08T19:40:14;11.65;;;5.95;;
25663;SDS011;13522;50.018;20.014;2023-10-08T19:43:26;13.98;;;6.30;;
25663;SDS011;13522;50.018;20.014;2023-10-08T19:46:39;12.48;;;6.83;;
25663;SDS011;13522;50.018;20.014;2023-10-08T19:49:51;16.15;;;6.90;;
25663;SDS011;13522;50.018;20.014;2023-10-08T19:53:03;17.80;;;7.45;;
25663;SDS011;13522;50.018;20.014;2023-10-08T19:56:15;16.38;;;6.93;;
25663;SDS011;13522;50.018;20.014;2023-10-08T19:59:28;14.13;;;7.30;;
25663;SDS011;13522;50.018;20.014;2023-10-08T20:02:43;14.65;;;7.65;;
25663;SDS011;13522;50.018;20.014;2023-10-08T20:05:57;13.45;;;7.75;;
25663;SDS011;13522;50.018;20.014;2023-10-08T20:09:10;13.80;;;7.30;;
25663;SDS011;13522;50.018;20.014;2023-10-08T20:12:23;17.25;;;7.73;;